Lamar, Missouri
Current Conditions -  °F | °C
As of 5:15 PM on Wednesday 22 Oct 2014 (Local Time) from KPTS Reporting Station
Scattered Clouds Scattered Clouds  
Wind Chill: 76°   Ceiling: Unl
Heat Index: 78°   Visibility: 10mi
Dew Point: 62°   Wind: 6mph
Humidity: 62%   Direction: 60°ENE
Pressure: 30.1"   Gusts: NA
Location:  37.5°N, 94.28°W
Report Text: KPTS 222215Z AUTO 06005KT 10SM SCT065 25/17 A3010 RMK AO2 T02450168
Loading
Personal Weather Stations






























Interactive Weather Map
Tropical Storm Tracking
New forecast layout! Learn more

10-Day Weather Forecast

Advertisements
Track Severe Weather on mobile